Hovedside
METAR-TAF:

METAR-TAF

Lufthavner :

Kosrae, Mikronesia

breddegrad: 05-21N, lengdegrad: 162-57E, høyde over havet: 3 m

Gjeldene værobservasjon

Denne rapporten ble laget for 5 timer og 51 minutter siden, klokken 23:50 UTC
Vind 9 kt fra Øst
Temperatur 30°C
Luftfuktighet 66%
Trykk 1009 hPa
Sikt: 16.1 km
Få skyer i en høyde av 2000 ft
Brutte skyer i en høyde av 13000 ft
Brutte skyer i en høyde av 30000 ft

METAR: PTSA 232350Z 08009KT 10SM FEW020 BKN130 BKN300 30/23 A2981 RMK LAST

Tid: 16:41 (05:41 UTC)

Varsel

Denne rapporten ble laget for 6 timer og 7 minutter siden, klokken 23:34 UTC
Varsel gyldig fra 24. klokken 00 UTC til 24. klokken 24 UTC
Vind 8 kt fra Øst
Sikt: 10 km
Få skyer i en høyde av 1800 ft
Spredte skyer i en høyde av 5000 ft
Brutte skyer i en høyde av 14000 ft
regnbyger i nærheten

TAF: PTSA 232334Z 2400/2424 10008KT P6SM VCSH FEW018 SCT050 BKN140

Værobservasjoner og værvarsel for over 4000 flyplasser (METAR- og TAF-rapporter).

Tilgjengelige stasjoner er representert av de røde og gule prikkene på kartet.

Hold musepekeren over prikken for å se navnet på stasjonen.

Klikk så for å se værobservasjoner og -varsler.

For å forandre kartet kan du klikke på den grønne knappen med svart kryss for å zoome inn, på den grønne knappen med strek for å zoome ut, eller på de grønne pilene for å se tilstøtende kart.


METAR-TAF: